sensor_id;sensor_type;location;lat;lon;timestamp;pressure;altitude;pressure_sealevel;temperature;humidity
21545;BME280;10933;50.754;11.508;2022-07-29T00:00:05;99619.31;;;15.17;100.00
21545;BME280;10933;50.754;11.508;2022-07-29T00:02:31;99616.28;;;15.28;100.00
21545;BME280;10933;50.754;11.508;2022-07-29T00:04:58;99618.47;;;15.26;100.00
21545;BME280;10933;50.754;11.508;2022-07-29T00:07:24;99605.06;;;15.35;100.00
21545;BME280;10933;50.754;11.508;2022-07-29T00:09:50;99598.00;;;15.39;100.00
21545;BME280;10933;50.754;11.508;2022-07-29T00:12:16;99606.81;;;15.16;100.00
21545;BME280;10933;50.754;11.508;2022-07-29T00:14:42;99596.25;;;15.14;100.00
21545;BME280;10933;50.754;11.508;2022-07-29T00:17:08;99599.47;;;15.16;100.00
21545;BME280;10933;50.754;11.508;2022-07-29T00:19:34;99598.06;;;15.24;100.00
21545;BME280;10933;50.754;11.508;2022-07-29T00:22:00;99597.88;;;15.10;100.00
21545;BME280;10933;50.754;11.508;2022-07-29T00:24:26;99595.22;;;15.00;100.00
21545;BME280;10933;50.754;11.508;2022-07-29T00:26:52;99588.97;;;14.94;100.00
21545;BME280;10933;50.754;11.508;2022-07-29T00:29:18;99590.56;;;15.06;100.00
21545;BME280;10933;50.754;11.508;2022-07-29T00:31:44;99595.44;;;15.09;100.00
21545;BME280;10933;50.754;11.508;2022-07-29T00:34:10;99590.28;;;15.12;100.00
21545;BME280;10933;50.754;11.508;2022-07-29T00:36:55;99587.28;;;15.14;100.00
21545;BME280;10933;50.754;11.508;2022-07-29T00:39:21;99587.00;;;15.15;100.00
21545;BME280;10933;50.754;11.508;2022-07-29T00:41:47;99588.63;;;15.11;100.00
21545;BME280;10933;50.754;11.508;2022-07-29T00:44:13;99574.56;;;15.04;100.00
21545;BME280;10933;50.754;11.508;2022-07-29T00:46:38;99578.44;;;14.88;100.00
21545;BME280;10933;50.754;11.508;2022-07-29T00:49:04;99583.94;;;14.67;100.00
21545;BME280;10933;50.754;11.508;2022-07-29T00:51:31;99573.09;;;14.57;100.00
21545;BME280;10933;50.754;11.508;2022-07-29T00:53:57;99582.38;;;14.46;100.00
21545;BME280;10933;50.754;11.508;2022-07-29T00:56:22;99580.19;;;14.33;100.00
21545;BME280;10933;50.754;11.508;2022-07-29T00:58:50;99572.63;;;14.30;100.00
21545;BME280;10933;50.754;11.508;2022-07-29T01:01:16;99562.88;;;14.24;100.00
21545;BME280;10933;50.754;11.508;2022-07-29T01:03:42;99568.81;;;14.21;100.00
21545;BME280;10933;50.754;11.508;2022-07-29T01:06:08;99569.34;;;14.23;100.00
21545;BME280;10933;50.754;11.508;2022-07-29T01:08:35;99569.63;;;14.31;100.00
21545;BME280;10933;50.754;11.508;2022-07-29T01:11:02;99566.34;;;14.39;100.00
21545;BME280;10933;50.754;11.508;2022-07-29T01:13:30;99565.00;;;14.52;100.00
21545;BME280;10933;50.754;11.508;2022-07-29T01:16:03;99566.59;;;14.58;100.00
21545;BME280;10933;50.754;11.508;2022-07-29T01:18:38;99550.88;;;14.50;100.00
21545;BME280;10933;50.754;11.508;2022-07-29T01:26:45;99566.06;;;14.61;100.00
21545;BME280;10933;50.754;11.508;2022-07-29T01:29:39;99569.34;;;14.38;100.00
21545;BME280;10933;50.754;11.508;2022-07-29T01:32:20;99563.09;;;14.37;100.00
21545;BME280;10933;50.754;11.508;2022-07-29T01:40:14;99553.38;;;14.26;100.00
21545;BME280;10933;50.754;11.508;2022-07-29T01:42:45;99537.06;;;14.21;100.00
21545;BME280;10933;50.754;11.508;2022-07-29T01:45:53;99538.50;;;13.98;100.00
21545;BME280;10933;50.754;11.508;2022-07-29T01:51:25;99536.34;;;13.90;100.00
21545;BME280;10933;50.754;11.508;2022-07-29T01:54:05;99537.97;;;13.91;100.00
21545;BME280;10933;50.754;11.508;2022-07-29T01:56:35;99533.59;;;14.05;100.00
21545;BME280;10933;50.754;11.508;2022-07-29T01:59:04;99548.22;;;14.14;100.00
21545;BME280;10933;50.754;11.508;2022-07-29T02:01:34;99542.81;;;14.14;100.00
21545;BME280;10933;50.754;11.508;2022-07-29T02:04:07;99537.41;;;13.94;100.00
21545;BME280;10933;50.754;11.508;2022-07-29T02:06:38;99534.72;;;13.89;100.00
21545;BME280;10933;50.754;11.508;2022-07-29T02:09:09;99537.97;;;13.71;100.00
21545;BME280;10933;50.754;11.508;2022-07-29T02:11:37;99539.03;;;13.70;100.00
21545;BME280;10933;50.754;11.508;2022-07-29T02:14:04;99542.59;;;13.60;100.00
21545;BME280;10933;50.754;11.508;2022-07-29T02:16:34;99541.22;;;13.63;100.00
21545;BME280;10933;50.754;11.508;2022-07-29T02:19:03;99536.06;;;13.66;100.00
21545;BME280;10933;50.754;11.508;2022-07-29T02:21:33;99529.84;;;13.55;100.00
21545;BME280;10933;50.754;11.508;2022-07-29T02:24:01;99533.91;;;13.58;100.00
21545;BME280;10933;50.754;11.508;2022-07-29T02:26:30;99536.06;;;13.56;100.00
21545;BME280;10933;50.754;11.508;2022-07-29T02:28:59;99529.84;;;13.66;100.00
21545;BME280;10933;50.754;11.508;2022-07-29T02:31:34;99537.41;;;13.79;100.00
21545;BME280;10933;50.754;11.508;2022-07-29T02:34:05;99533.09;;;13.78;100.00
21545;BME280;10933;50.754;11.508;2022-07-29T02:36:34;99533.63;;;13.70;100.00
21545;BME280;10933;50.754;11.508;2022-07-29T02:39:02;99532.53;;;13.71;100.00
21545;BME280;10933;50.754;11.508;2022-07-29T02:41:52;99537.97;;;13.71;100.00
21545;BME280;10933;50.754;11.508;2022-07-29T02:44:25;99533.91;;;13.68;100.00
21545;BME280;10933;50.754;11.508;2022-07-29T02:49:38;99524.38;;;13.20;100.00
21545;BME280;10933;50.754;11.508;2022-07-29T02:52:09;99519.47;;;13.17;100.00
21545;BME280;10933;50.754;11.508;2022-07-29T02:54:46;99524.91;;;13.12;100.00
21545;BME280;10933;50.754;11.508;2022-07-29T02:57:42;99527.09;;;13.30;100.00
21545;BME280;10933;50.754;11.508;2022-07-29T03:00:10;99520.28;;;13.17;100.00
21545;BME280;10933;50.754;11.508;2022-07-29T03:02:40;99527.56;;;12.96;100.00
21545;BME280;10933;50.754;11.508;2022-07-29T03:05:17;99524.88;;;13.02;100.00
21545;BME280;10933;50.754;11.508;2022-07-29T03:07:49;99526.25;;;13.09;100.00
21545;BME280;10933;50.754;11.508;2022-07-29T03:10:18;99534.63;;;12.98;100.00
21545;BME280;10933;50.754;11.508;2022-07-29T03:12:44;99544.91;;;13.01;100.00
21545;BME280;10933;50.754;11.508;2022-07-29T03:15:11;99537.31;;;13.03;100.00
21545;BME280;10933;50.754;11.508;2022-07-29T03:17:39;99537.91;;;13.20;100.00
21545;BME280;10933;50.754;11.508;2022-07-29T03:20:07;99533.63;;;13.39;100.00
21545;BME280;10933;50.754;11.508;2022-07-29T03:22:39;99544.22;;;13.51;100.00
21545;BME280;10933;50.754;11.508;2022-07-29T03:25:10;99543.34;;;13.20;100.00
21545;BME280;10933;50.754;11.508;2022-07-29T03:27:36;99547.84;;;12.94;100.00
21545;BME280;10933;50.754;11.508;2022-07-29T03:30:03;99543.81;;;13.02;100.00
21545;BME280;10933;50.754;11.508;2022-07-29T03:32:29;99550.81;;;12.87;100.00
21545;BME280;10933;50.754;11.508;2022-07-29T03:34:55;99545.41;;;12.87;100.00
21545;BME280;10933;50.754;11.508;2022-07-29T03:37:20;99542.44;;;12.89;100.00
21545;BME280;10933;50.754;11.508;2022-07-29T03:39:48;99548.94;;;12.93;100.00
21545;BME280;10933;50.754;11.508;2022-07-29T03:42:17;99551.44;;;13.15;100.00
21545;BME280;10933;50.754;11.508;2022-07-29T03:44:47;99551.94;;;13.07;100.00
21545;BME280;10933;50.754;11.508;2022-07-29T03:47:17;99548.72;;;13.10;100.00
21545;BME280;10933;50.754;11.508;2022-07-29T03:49:47;99553.03;;;13.06;100.00
21545;BME280;10933;50.754;11.508;2022-07-29T03:52:15;99547.91;;;13.09;100.00
21545;BME280;10933;50.754;11.508;2022-07-29T03:54:41;99547.09;;;13.09;100.00
21545;BME280;10933;50.754;11.508;2022-07-29T03:57:07;99548.19;;;13.13;100.00
21545;BME280;10933;50.754;11.508;2022-07-29T03:59:36;99547.44;;;13.28;100.00
21545;BME280;10933;50.754;11.508;2022-07-29T04:02:05;99549.25;;;13.17;100.00
21545;BME280;10933;50.754;11.508;2022-07-29T04:04:34;99553.84;;;12.96;100.00
21545;BME280;10933;50.754;11.508;2022-07-29T04:07:00;99553.03;;;13.06;100.00
21545;BME280;10933;50.754;11.508;2022-07-29T04:09:26;99560.66;;;13.14;100.00
21545;BME280;10933;50.754;11.508;2022-07-29T04:11:53;99554.97;;;13.15;100.00
21545;BME280;10933;50.754;11.508;2022-07-29T04:14:19;99547.63;;;13.16;100.00
21545;BME280;10933;50.754;11.508;2022-07-29T04:16:46;99547.63;;;13.16;100.00
21545;BME280;10933;50.754;11.508;2022-07-29T04:19:11;99546.25;;;13.08;100.00
21545;BME280;10933;50.754;11.508;2022-07-29T04:21:39;99552.22;;;13.05;100.00
21545;BME280;10933;50.754;11.508;2022-07-29T04:24:06;99550.91;;;13.13;100.00
21545;BME280;10933;50.754;11.508;2022-07-29T04:26:34;99554.19;;;13.25;100.00
21545;BME280;10933;50.754;11.508;2022-07-29T04:29:00;99547.94;;;13.19;100.00
21545;BME280;10933;50.754;11.508;2022-07-29T04:31:27;99543.34;;;13.30;100.00
21545;BME280;10933;50.754;11.508;2022-07-29T04:33:52;99541.75;;;13.39;100.00
21545;BME280;10933;50.754;11.508;2022-07-29T04:36:18;99543.41;;;13.50;100.00
21545;BME280;10933;50.754;11.508;2022-07-29T04:38:44;99538.75;;;13.46;100.00
21545;BME280;10933;50.754;11.508;2022-07-29T04:41:09;99545.28;;;13.45;100.00
21545;BME280;10933;50.754;11.508;2022-07-29T04:43:35;99534.19;;;13.51;100.00
21545;BME280;10933;50.754;11.508;2022-07-29T04:46:03;99541.22;;;13.52;100.00
21545;BME280;10933;50.754;11.508;2022-07-29T04:48:29;99535.53;;;13.49;100.00
21545;BME280;10933;50.754;11.508;2022-07-29T04:50:55;99544.50;;;13.60;100.00
21545;BME280;10933;50.754;11.508;2022-07-29T04:53:22;99537.44;;;13.74;100.00
21545;BME280;10933;50.754;11.508;2022-07-29T04:55:48;99535.53;;;13.90;100.00
21545;BME280;10933;50.754;11.508;2022-07-29T04:58:13;99540.66;;;13.96;100.00
21545;BME280;10933;50.754;11.508;2022-07-29T05:00:40;99540.94;;;13.95;100.00
21545;BME280;10933;50.754;11.508;2022-07-29T05:03:06;99544.75;;;13.99;100.00
21545;BME280;10933;50.754;11.508;2022-07-29T05:05:31;99547.88;;;14.41;100.00
21545;BME280;10933;50.754;11.508;2022-07-29T05:07:57;99557.06;;;14.66;100.00
21545;BME280;10933;50.754;11.508;2022-07-29T05:10:23;99563.31;;;14.66;100.00
21545;BME280;10933;50.754;11.508;2022-07-29T05:12:49;99569.59;;;14.52;100.00
21545;BME280;10933;50.754;11.508;2022-07-29T05:15:15;99555.22;;;14.51;100.00
21545;BME280;10933;50.754;11.508;2022-07-29T05:17:40;99561.44;;;14.62;100.00
21545;BME280;10933;50.754;11.508;2022-07-29T05:20:07;99563.28;;;14.71;100.00
21545;BME280;10933;50.754;11.508;2022-07-29T05:22:32;99567.31;;;14.84;100.00
21545;BME280;10933;50.754;11.508;2022-07-29T05:24:58;99562.22;;;14.67;100.00
21545;BME280;10933;50.754;11.508;2022-07-29T05:27:24;99561.41;;;14.67;100.00
21545;BME280;10933;50.754;11.508;2022-07-29T05:29:50;99559.84;;;14.51;100.00
21545;BME280;10933;50.754;11.508;2022-07-29T05:32:16;99554.13;;;14.47;100.00
21545;BME280;10933;50.754;11.508;2022-07-29T05:34:42;99560.69;;;14.36;100.00
21545;BME280;10933;50.754;11.508;2022-07-29T05:37:08;99559.03;;;14.35;100.00
21545;BME280;10933;50.754;11.508;2022-07-29T05:39:33;99561.19;;;14.43;100.00
21545;BME280;10933;50.754;11.508;2022-07-29T05:41:59;99565.22;;;14.66;100.00
21545;BME280;10933;50.754;11.508;2022-07-29T05:44:25;99564.25;;;15.01;100.00
21545;BME280;10933;50.754;11.508;2022-07-29T05:46:50;99566.22;;;15.35;100.00
21545;BME280;10933;50.754;11.508;2022-07-29T05:49:16;99562.81;;;15.92;100.00
21545;BME280;10933;50.754;11.508;2022-07-29T05:51:42;99575.63;;;17.73;100.00
21545;BME280;10933;50.754;11.508;2022-07-29T05:54:08;99557.81;;;18.81;100.00
21545;BME280;10933;50.754;11.508;2022-07-29T05:56:39;99565.41;;;19.34;96.97
21545;BME280;10933;50.754;11.508;2022-07-29T05:59:08;99564.66;;;18.38;100.00
21545;BME280;10933;50.754;11.508;2022-07-29T06:01:33;99570.09;;;18.38;99.05
21545;BME280;10933;50.754;11.508;2022-07-29T06:03:59;99569.88;;;18.07;99.11
21545;BME280;10933;50.754;11.508;2022-07-29T06:06:25;99572.13;;;19.15;98.25
21545;BME280;10933;50.754;11.508;2022-07-29T06:08:50;99564.88;;;20.44;92.28
21545;BME280;10933;50.754;11.508;2022-07-29T06:11:16;99562.91;;;20.76;85.89
21545;BME280;10933;50.754;11.508;2022-07-29T06:13:42;99561.66;;;22.38;74.55
21545;BME280;10933;50.754;11.508;2022-07-29T06:16:07;99564.69;;;23.75;65.13
21545;BME280;10933;50.754;11.508;2022-07-29T06:18:33;99565.66;;;23.08;61.17
21545;BME280;10933;50.754;11.508;2022-07-29T06:20:59;99564.00;;;22.86;63.39
21545;BME280;10933;50.754;11.508;2022-07-29T06:23:25;99567.56;;;20.67;71.89
21545;BME280;10933;50.754;11.508;2022-07-29T06:25:51;99567.41;;;22.53;66.61
21545;BME280;10933;50.754;11.508;2022-07-29T06:28:16;99570.97;;;21.55;63.77
21545;BME280;10933;50.754;11.508;2022-07-29T06:30:42;99568.53;;;21.28;65.52
21545;BME280;10933;50.754;11.508;2022-07-29T06:33:08;99560.28;;;22.52;62.49
21545;BME280;10933;50.754;11.508;2022-07-29T06:35:34;99557.66;;;21.05;65.77
21545;BME280;10933;50.754;11.508;2022-07-29T06:38:04;99559.31;;;21.24;69.65
21545;BME280;10933;50.754;11.508;2022-07-29T06:40:30;99554.22;;;22.29;66.37
21545;BME280;10933;50.754;11.508;2022-07-29T06:43:14;99562.84;;;22.02;67.49
21545;BME280;10933;50.754;11.508;2022-07-29T06:45:40;99553.47;;;22.03;61.35
21545;BME280;10933;50.754;11.508;2022-07-29T06:48:06;99548.59;;;23.65;60.33
21545;BME280;10933;50.754;11.508;2022-07-29T06:50:32;99554.13;;;21.13;63.18
21545;BME280;10933;50.754;11.508;2022-07-29T06:52:58;99551.91;;;24.98;54.37
21545;BME280;10933;50.754;11.508;2022-07-29T06:55:23;99543.19;;;24.71;55.60
21545;BME280;10933;50.754;11.508;2022-07-29T06:57:50;99554.25;;;26.04;47.80
21545;BME280;10933;50.754;11.508;2022-07-29T07:00:16;99545.06;;;21.04;60.04
21545;BME280;10933;50.754;11.508;2022-07-29T07:02:41;99554.78;;;21.10;61.64
21545;BME280;10933;50.754;11.508;2022-07-29T07:05:07;99549.34;;;20.62;63.98
21545;BME280;10933;50.754;11.508;2022-07-29T07:07:33;99549.25;;;20.14;67.53
21545;BME280;10933;50.754;11.508;2022-07-29T07:09:59;99552.75;;;20.37;70.21
21545;BME280;10933;50.754;11.508;2022-07-29T07:12:25;99549.59;;;21.00;68.64
21545;BME280;10933;50.754;11.508;2022-07-29T07:14:51;99554.41;;;20.86;65.27
21545;BME280;10933;50.754;11.508;2022-07-29T07:17:17;99553.34;;;19.72;69.27
21545;BME280;10933;50.754;11.508;2022-07-29T07:19:43;99543.22;;;21.48;64.59
21545;BME280;10933;50.754;11.508;2022-07-29T07:22:10;99542.00;;;22.86;58.60
21545;BME280;10933;50.754;11.508;2022-07-29T07:24:37;99547.00;;;24.67;53.22
21545;BME280;10933;50.754;11.508;2022-07-29T07:27:03;99542.03;;;24.35;52.65
21545;BME280;10933;50.754;11.508;2022-07-29T07:29:29;99527.00;;;22.45;55.45
21545;BME280;10933;50.754;11.508;2022-07-29T07:31:57;99526.34;;;23.49;54.87
21545;BME280;10933;50.754;11.508;2022-07-29T07:34:24;99533.03;;;21.40;61.15
21545;BME280;10933;50.754;11.508;2022-07-29T07:36:50;99528.91;;;22.15;61.13
21545;BME280;10933;50.754;11.508;2022-07-29T07:39:16;99532.97;;;21.05;63.20
21545;BME280;10933;50.754;11.508;2022-07-29T07:41:42;99528.53;;;22.25;59.55
21545;BME280;10933;50.754;11.508;2022-07-29T07:44:08;99532.09;;;20.70;63.21
21545;BME280;10933;50.754;11.508;2022-07-29T07:46:34;99527.25;;;20.59;64.71
21545;BME280;10933;50.754;11.508;2022-07-29T07:49:00;99533.50;;;21.42;63.03
21545;BME280;10933;50.754;11.508;2022-07-29T07:51:26;99524.91;;;21.17;63.81
21545;BME280;10933;50.754;11.508;2022-07-29T07:53:52;99531.56;;;21.68;63.36
21545;BME280;10933;50.754;11.508;2022-07-29T07:56:19;99530.69;;;22.02;61.86
21545;BME280;10933;50.754;11.508;2022-07-29T07:58:45;99537.31;;;21.93;60.19
21545;BME280;10933;50.754;11.508;2022-07-29T08:01:11;99532.63;;;22.02;60.42
21545;BME280;10933;50.754;11.508;2022-07-29T08:03:37;99528.25;;;22.56;57.77
21545;BME280;10933;50.754;11.508;2022-07-29T08:06:04;99524.94;;;21.43;59.52
21545;BME280;10933;50.754;11.508;2022-07-29T08:08:31;99530.38;;;22.89;59.80
21545;BME280;10933;50.754;11.508;2022-07-29T08:10:57;99524.53;;;23.53;56.37
21545;BME280;10933;50.754;11.508;2022-07-29T08:13:25;99523.53;;;24.85;50.68
21545;BME280;10933;50.754;11.508;2022-07-29T08:15:53;99526.44;;;26.28;50.38
21545;BME280;10933;50.754;11.508;2022-07-29T08:18:24;99516.84;;;26.54;46.84
21545;BME280;10933;50.754;11.508;2022-07-29T08:20:50;99521.00;;;24.92;48.68
21545;BME280;10933;50.754;11.508;2022-07-29T08:23:16;99520.97;;;23.53;50.95
21545;BME280;10933;50.754;11.508;2022-07-29T08:25:44;99515.72;;;22.38;55.88
21545;BME280;10933;50.754;11.508;2022-07-29T08:28:10;99516.53;;;22.68;56.06
21545;BME280;10933;50.754;11.508;2022-07-29T08:30:36;99517.22;;;22.65;55.84
21545;BME280;10933;50.754;11.508;2022-07-29T08:33:03;99515.31;;;23.49;54.06
21545;BME280;10933;50.754;11.508;2022-07-29T08:35:29;99508.72;;;23.83;53.51
21545;BME280;10933;50.754;11.508;2022-07-29T08:37:55;99516.22;;;24.52;50.92
21545;BME280;10933;50.754;11.508;2022-07-29T08:40:23;99519.19;;;25.36;47.47
21545;BME280;10933;50.754;11.508;2022-07-29T08:42:50;99520.56;;;24.78;47.55
21545;BME280;10933;50.754;11.508;2022-07-29T08:45:16;99516.09;;;25.94;45.52
21545;BME280;10933;50.754;11.508;2022-07-29T08:47:45;99511.97;;;25.88;45.58
21545;BME280;10933;50.754;11.508;2022-07-29T08:50:11;99521.03;;;25.72;47.26
21545;BME280;10933;50.754;11.508;2022-07-29T08:52:39;99519.16;;;27.38;43.99
21545;BME280;10933;50.754;11.508;2022-07-29T08:55:09;99508.28;;;29.05;41.09
21545;BME280;10933;50.754;11.508;2022-07-29T08:57:37;99505.34;;;28.45;41.15
21545;BME280;10933;50.754;11.508;2022-07-29T09:00:06;99506.34;;;28.83;40.32
21545;BME280;10933;50.754;11.508;2022-07-29T09:02:39;99501.41;;;31.57;36.27
21545;BME280;10933;50.754;11.508;2022-07-29T09:05:06;99493.56;;;27.25;42.10
21545;BME280;10933;50.754;11.508;2022-07-29T09:07:33;99499.75;;;27.18;42.29
21545;BME280;10933;50.754;11.508;2022-07-29T09:10:01;99500.94;;;28.90;40.32
21545;BME280;10933;50.754;11.508;2022-07-29T09:12:28;99496.03;;;26.76;43.72
21545;BME280;10933;50.754;11.508;2022-07-29T09:14:54;99487.75;;;27.30;44.05
21545;BME280;10933;50.754;11.508;2022-07-29T09:17:43;99481.25;;;26.87;42.74
21545;BME280;10933;50.754;11.508;2022-07-29T09:20:15;99483.75;;;26.57;43.59
21545;BME280;10933;50.754;11.508;2022-07-29T09:22:41;99483.28;;;24.96;47.02
21545;BME280;10933;50.754;11.508;2022-07-29T09:25:08;99482.06;;;24.57;49.27
21545;BME280;10933;50.754;11.508;2022-07-29T09:27:35;99475.00;;;26.24;47.18
21545;BME280;10933;50.754;11.508;2022-07-29T09:30:09;99472.47;;;25.71;46.88
21545;BME280;10933;50.754;11.508;2022-07-29T09:32:56;99476.31;;;28.88;40.91
21545;BME280;10933;50.754;11.508;2022-07-29T09:35:24;99480.28;;;31.60;37.66
21545;BME280;10933;50.754;11.508;2022-07-29T09:37:51;99477.97;;;30.34;37.00
21545;BME280;10933;50.754;11.508;2022-07-29T09:40:22;99468.06;;;32.14;35.44
21545;BME280;10933;50.754;11.508;2022-07-29T09:42:49;99461.66;;;31.89;34.04
21545;BME280;10933;50.754;11.508;2022-07-29T09:45:32;99460.19;;;33.54;32.51
21545;BME280;10933;50.754;11.508;2022-07-29T09:47:59;99463.91;;;31.41;34.21
21545;BME280;10933;50.754;11.508;2022-07-29T09:50:39;99453.22;;;31.71;34.55
21545;BME280;10933;50.754;11.508;2022-07-29T09:53:06;99452.53;;;32.53;32.61
21545;BME280;10933;50.754;11.508;2022-07-29T09:55:32;99447.16;;;29.05;37.61
21545;BME280;10933;50.754;11.508;2022-07-29T09:58:18;99440.09;;;29.78;37.56
21545;BME280;10933;50.754;11.508;2022-07-29T10:00:45;99432.97;;;32.49;34.03
21545;BME280;10933;50.754;11.508;2022-07-29T10:03:13;99433.00;;;33.58;31.94
21545;BME280;10933;50.754;11.508;2022-07-29T10:05:40;99426.13;;;30.67;35.09
21545;BME280;10933;50.754;11.508;2022-07-29T10:08:08;99432.84;;;30.11;36.16
21545;BME280;10933;50.754;11.508;2022-07-29T10:10:37;99416.59;;;30.71;35.09
21545;BME280;10933;50.754;11.508;2022-07-29T10:13:06;99427.56;;;33.29;32.73
21545;BME280;10933;50.754;11.508;2022-07-29T10:15:35;99428.53;;;30.17;35.19
21545;BME280;10933;50.754;11.508;2022-07-29T10:18:08;99424.47;;;33.06;32.39
21545;BME280;10933;50.754;11.508;2022-07-29T10:20:36;99427.41;;;34.62;30.33
21545;BME280;10933;50.754;11.508;2022-07-29T10:23:03;99420.19;;;37.39;26.60
21545;BME280;10933;50.754;11.508;2022-07-29T10:25:30;99415.50;;;34.50;28.51
21545;BME280;10933;50.754;11.508;2022-07-29T10:27:56;99399.84;;;36.06;27.27
21545;BME280;10933;50.754;11.508;2022-07-29T10:30:24;99402.56;;;32.94;29.00
21545;BME280;10933;50.754;11.508;2022-07-29T10:33:21;99400.50;;;34.68;29.16
21545;BME280;10933;50.754;11.508;2022-07-29T10:39:08;99379.84;;;31.21;31.50
21545;BME280;10933;50.754;11.508;2022-07-29T10:42:02;99373.44;;;34.13;30.68
21545;BME280;10933;50.754;11.508;2022-07-29T10:44:31;99370.31;;;31.36;32.20
21545;BME280;10933;50.754;11.508;2022-07-29T10:46:59;99371.97;;;31.98;33.15
21545;BME280;10933;50.754;11.508;2022-07-29T10:49:26;99372.53;;;35.29;27.52
21545;BME280;10933;50.754;11.508;2022-07-29T10:52:10;99361.22;;;31.82;30.79
21545;BME280;10933;50.754;11.508;2022-07-29T10:54:38;99361.34;;;34.98;29.27
21545;BME280;10933;50.754;11.508;2022-07-29T10:57:16;99361.41;;;34.91;28.77
21545;BME280;10933;50.754;11.508;2022-07-29T10:59:44;99354.53;;;30.64;33.55
21545;BME280;10933;50.754;11.508;2022-07-29T11:07:26;99339.09;;;30.84;33.46
21545;BME280;10933;50.754;11.508;2022-07-29T11:15:10;99333.31;;;31.57;32.82
21545;BME280;10933;50.754;11.508;2022-07-29T11:20:42;99332.19;;;29.98;35.45
21545;BME280;10933;50.754;11.508;2022-07-29T11:23:28;99335.53;;;30.18;35.85
21545;BME280;10933;50.754;11.508;2022-07-29T11:26:13;99345.47;;;29.30;36.50
21545;BME280;10933;50.754;11.508;2022-07-29T11:31:19;99343.31;;;29.13;36.61
21545;BME280;10933;50.754;11.508;2022-07-29T11:33:45;99333.16;;;30.20;36.18
21545;BME280;10933;50.754;11.508;2022-07-29T11:36:14;99346.31;;;29.35;37.71
21545;BME280;10933;50.754;11.508;2022-07-29T11:38:40;99336.44;;;29.37;37.48
21545;BME280;10933;50.754;11.508;2022-07-29T11:41:24;99337.50;;;30.14;35.71
21545;BME280;10933;50.754;11.508;2022-07-29T11:43:52;99339.66;;;30.38;35.65
21545;BME280;10933;50.754;11.508;2022-07-29T11:46:45;99347.44;;;29.67;36.59
21545;BME280;10933;50.754;11.508;2022-07-29T11:49:13;99348.22;;;29.27;37.29
21545;BME280;10933;50.754;11.508;2022-07-29T11:51:51;99344.19;;;28.57;38.43
21545;BME280;10933;50.754;11.508;2022-07-29T11:54:24;99340.69;;;28.07;39.57
21545;BME280;10933;50.754;11.508;2022-07-29T11:56:50;99348.91;;;28.00;39.85
21545;BME280;10933;50.754;11.508;2022-07-29T11:59:19;99344.13;;;27.97;40.66
21545;BME280;10933;50.754;11.508;2022-07-29T12:01:55;99345.63;;;27.95;40.08
21545;BME280;10933;50.754;11.508;2022-07-29T12:04:22;99335.47;;;28.02;39.63
21545;BME280;10933;50.754;11.508;2022-07-29T12:06:52;99343.13;;;28.35;39.79
21545;BME280;10933;50.754;11.508;2022-07-29T12:09:20;99331.06;;;27.98;39.54
21545;BME280;10933;50.754;11.508;2022-07-29T12:11:47;99330.69;;;27.99;40.38
21545;BME280;10933;50.754;11.508;2022-07-29T12:14:30;99334.47;;;27.65;40.40
21545;BME280;10933;50.754;11.508;2022-07-29T12:16:58;99333.75;;;27.94;39.42
21545;BME280;10933;50.754;11.508;2022-07-29T12:19:24;99336.03;;;28.38;39.52
21545;BME280;10933;50.754;11.508;2022-07-29T12:21:53;99335.13;;;28.07;41.52
21545;BME280;10933;50.754;11.508;2022-07-29T12:24:20;99338.84;;;27.66;42.03
21545;BME280;10933;50.754;11.508;2022-07-29T12:26:57;99334.09;;;27.66;42.22
21545;BME280;10933;50.754;11.508;2022-07-29T12:29:23;99335.22;;;27.42;42.71
21545;BME280;10933;50.754;11.508;2022-07-29T12:31:53;99334.00;;;27.40;42.03
21545;BME280;10933;50.754;11.508;2022-07-29T12:34:22;99335.84;;;27.55;41.85
21545;BME280;10933;50.754;11.508;2022-07-29T12:36:49;99327.47;;;27.51;41.83
21545;BME280;10933;50.754;11.508;2022-07-29T12:39:19;99334.19;;;27.50;42.34
21545;BME280;10933;50.754;11.508;2022-07-29T12:41:45;99335.81;;;27.74;43.53
21545;BME280;10933;50.754;11.508;2022-07-29T12:44:12;99335.44;;;27.53;44.05
21545;BME280;10933;50.754;11.508;2022-07-29T12:46:38;99333.44;;;27.53;43.22
21545;BME280;10933;50.754;11.508;2022-07-29T12:49:04;99326.44;;;27.37;42.06
21545;BME280;10933;50.754;11.508;2022-07-29T12:51:31;99327.00;;;27.23;42.89
21545;BME280;10933;50.754;11.508;2022-07-29T12:56:40;99328.97;;;27.45;42.77
21545;BME280;10933;50.754;11.508;2022-07-29T12:59:20;99328.19;;;27.45;43.79
21545;BME280;10933;50.754;11.508;2022-07-29T13:01:48;99332.91;;;27.02;45.60
21545;BME280;10933;50.754;11.508;2022-07-29T13:04:32;99332.44;;;27.00;46.68
21545;BME280;10933;50.754;11.508;2022-07-29T13:07:00;99352.28;;;26.83;49.98
21545;BME280;10933;50.754;11.508;2022-07-29T13:09:43;99357.41;;;25.95;54.80
21545;BME280;10933;50.754;11.508;2022-07-29T13:12:12;99366.03;;;26.60;55.40
21545;BME280;10933;50.754;11.508;2022-07-29T13:14:43;99348.63;;;25.61;59.42
21545;BME280;10933;50.754;11.508;2022-07-29T13:17:12;99374.06;;;25.98;60.37
21545;BME280;10933;50.754;11.508;2022-07-29T13:19:40;99363.81;;;25.99;61.62
21545;BME280;10933;50.754;11.508;2022-07-29T13:22:21;99373.78;;;25.88;63.05
21545;BME280;10933;50.754;11.508;2022-07-29T13:25:00;99372.28;;;25.90;64.47
21545;BME280;10933;50.754;11.508;2022-07-29T13:27:33;99366.97;;;25.38;67.08
21545;BME280;10933;50.754;11.508;2022-07-29T13:30:02;99383.34;;;25.31;69.38
21545;BME280;10933;50.754;11.508;2022-07-29T13:32:30;99378.56;;;24.87;74.26